createdAt,value
2018-05-06T00:02:14.107Z,102845.84
2018-05-06T00:04:40.957Z,102843.81
2018-05-06T00:07:07.938Z,102843.81
2018-05-06T00:09:35.531Z,102840.67
2018-05-06T00:12:02.407Z,102842.27
2018-05-06T00:14:29.308Z,102833.59
2018-05-06T00:16:56.167Z,102839.41
2018-05-06T00:19:23.572Z,102836.80
2018-05-06T00:21:50.425Z,102840.82
2018-05-06T00:24:17.260Z,102833.55
2018-05-06T00:26:44.155Z,102829.55
2018-05-06T00:29:10.993Z,102827.75
2018-05-06T00:31:37.892Z,102826.27
2018-05-06T00:34:05.516Z,102815.77
2018-05-06T00:36:32.415Z,102822.08
2018-05-06T00:38:59.360Z,102811.22
2018-05-06T00:41:26.227Z,102812.91
2018-05-06T00:43:54.044Z,102811.00
2018-05-06T00:46:20.924Z,102803.06
2018-05-06T00:48:48.512Z,102807.98
2018-05-06T00:51:15.417Z,102805.73
2018-05-06T00:53:42.271Z,102806.23
2018-05-06T00:56:09.153Z,102813.22
2018-05-06T00:58:36.053Z,102810.19
2018-05-06T01:01:02.950Z,102815.58
2018-05-06T01:03:29.900Z,102824.62
2018-05-06T01:05:56.829Z,102823.87
2018-05-06T01:08:23.719Z,102822.31
2018-05-06T01:10:50.669Z,102819.98
2018-05-06T01:13:17.565Z,102824.36
2018-05-06T01:15:44.411Z,102830.75
2018-05-06T01:18:11.301Z,102834.81
2018-05-06T01:20:38.924Z,102831.67
2018-05-06T01:23:05.768Z,102826.66
2018-05-06T01:25:32.663Z,102830.16
2018-05-06T01:27:59.591Z,102833.14
2018-05-06T01:30:26.436Z,102830.73
2018-05-06T01:32:53.596Z,102833.86
2018-05-06T01:35:20.496Z,102828.90
2018-05-06T01:37:47.339Z,102832.27
2018-05-06T01:40:14.542Z,102830.99
2018-05-06T01:42:41.384Z,102825.52
2018-05-06T01:45:08.241Z,102829.91
2018-05-06T01:47:35.133Z,102827.73
2018-05-06T01:50:02.272Z,102827.82
2018-05-06T01:52:29.118Z,102822.40
2018-05-06T01:54:56.009Z,102825.27
2018-05-06T01:57:23.689Z,102828.36
2018-05-06T01:59:51.371Z,102820.05
2018-05-06T02:02:18.951Z,102813.28
2018-05-06T02:04:45.897Z,102805.50
2018-05-06T02:07:12.765Z,102800.44
2018-05-06T02:09:40.428Z,102800.03
2018-05-06T02:12:07.292Z,102807.45
2018-05-06T02:14:34.148Z,102813.64
2018-05-06T02:17:01.052Z,102812.95
2018-05-06T02:19:27.895Z,102818.09
2018-05-06T02:21:54.832Z,102810.81
2018-05-06T02:24:21.667Z,102811.61
2018-05-06T02:26:49.252Z,102808.16
2018-05-06T02:29:16.152Z,102814.34
2018-05-06T02:31:43.007Z,102813.55
2018-05-06T02:34:10.639Z,102804.09
2018-05-06T02:36:37.661Z,102797.77
2018-05-06T02:39:04.596Z,102797.89
2018-05-06T02:41:31.525Z,102790.52
2018-05-06T02:43:59.179Z,102792.16
2018-05-06T02:46:26.774Z,102802.18
2018-05-06T02:48:53.660Z,102799.70
2018-05-06T02:51:20.505Z,102794.56
2018-05-06T02:53:47.364Z,102789.67
2018-05-06T02:56:14.253Z,102791.84
2018-05-06T02:58:41.152Z,102795.66
2018-05-06T03:01:08.059Z,102802.11
2018-05-06T03:03:35.005Z,102806.14
2018-05-06T03:06:01.900Z,102804.12
2018-05-06T03:08:29.533Z,102804.68
2018-05-06T03:10:56.392Z,102796.34
2018-05-06T03:13:23.230Z,102799.82
2018-05-06T03:15:50.122Z,102793.69
2018-05-06T03:18:16.972Z,102794.09
2018-05-06T03:20:43.806Z,102791.52
2018-05-06T03:23:11.004Z,102799.97
2018-05-06T03:25:37.894Z,102795.28
2018-05-06T03:28:04.755Z,102798.34
2018-05-06T03:30:31.800Z,102796.57
2018-05-06T03:32:58.676Z,102789.05
2018-05-06T03:35:25.524Z,102793.84
2018-05-06T03:37:53.218Z,102793.73
2018-05-06T03:40:20.899Z,102789.78
2018-05-06T03:42:48.619Z,102795.23
2018-05-06T03:45:15.467Z,102796.36
2018-05-06T03:47:42.360Z,102794.56
2018-05-06T03:50:09.958Z,102799.74
2018-05-06T03:52:36.861Z,102801.33
2018-05-06T03:55:04.509Z,102800.92
2018-05-06T03:57:49.698Z,102804.30
2018-05-06T04:00:35.800Z,102815.38
2018-05-06T04:03:02.716Z,102814.77
2018-05-06T04:05:29.565Z,102815.08
2018-05-06T04:07:56.420Z,102825.01
2018-05-06T04:10:23.330Z,102830.45
2018-05-06T04:12:50.182Z,102836.05
2018-05-06T04:15:17.813Z,102839.66
2018-05-06T04:17:44.715Z,102841.34
2018-05-06T04:20:12.311Z,102849.19
2018-05-06T04:22:39.167Z,102845.91
2018-05-06T04:25:06.048Z,102852.98
2018-05-06T04:27:33.246Z,102854.02
2018-05-06T04:30:00.196Z,102852.05
2018-05-06T04:32:27.100Z,102857.88
2018-05-06T04:34:53.994Z,102852.58
2018-05-06T04:37:20.859Z,102849.09
2018-05-06T04:39:47.770Z,102852.00
2018-05-06T04:42:14.656Z,102858.62
2018-05-06T04:44:41.499Z,102860.33
2018-05-06T04:47:08.396Z,102859.13
2018-05-06T04:49:35.235Z,102862.16
2018-05-06T04:52:02.887Z,102855.70
2018-05-06T04:54:30.541Z,102853.49
2018-05-06T04:56:57.388Z,102851.52
2018-05-06T04:59:24.366Z,102852.52
2018-05-06T05:01:51.229Z,102854.56
2018-05-06T05:04:18.189Z,102856.28
2018-05-06T05:06:45.096Z,102853.91
2018-05-06T05:09:12.756Z,102855.92
2018-05-06T05:11:40.340Z,102857.30
2018-05-06T05:14:07.184Z,102856.87
2018-05-06T05:16:34.086Z,102852.64
2018-05-06T05:19:00.946Z,102858.89
2018-05-06T05:21:28.605Z,102862.83
2018-05-06T05:23:56.201Z,102867.72
2018-05-06T05:26:23.047Z,102870.47
2018-05-06T05:28:49.991Z,102871.09
2018-05-06T05:31:16.888Z,102869.49
2018-05-06T05:33:43.779Z,102864.30
2018-05-06T05:36:10.673Z,102863.57
2018-05-06T05:38:37.650Z,102870.72
2018-05-06T05:41:05.276Z,102858.09
2018-05-06T05:43:32.121Z,102861.36
2018-05-06T05:45:59.032Z,102866.30
2018-05-06T05:48:25.885Z,102860.63
2018-05-06T05:50:52.729Z,102865.62
2018-05-06T05:53:19.619Z,102873.46
2018-05-06T05:55:46.552Z,102874.16
2018-05-06T05:58:13.479Z,102872.03
2018-05-06T06:00:40.335Z,102880.39
2018-05-06T06:03:07.212Z,102879.84
2018-05-06T06:05:34.101Z,102896.27
2018-05-06T06:08:01.043Z,102903.67
2018-05-06T06:10:27.958Z,102898.44
2018-05-06T06:12:54.851Z,102902.61
2018-05-06T06:15:21.702Z,102908.55
2018-05-06T06:17:48.625Z,102914.52
2018-05-06T06:20:15.556Z,102915.69
2018-05-06T06:22:42.395Z,102913.30
2018-05-06T06:25:10.042Z,102914.63
2018-05-06T06:27:37.672Z,102917.89
2018-05-06T06:30:04.899Z,102928.23
2018-05-06T06:32:31.757Z,102932.52
2018-05-06T06:34:58.608Z,102929.75
2018-05-06T06:37:25.500Z,102929.16
2018-05-06T06:39:53.096Z,102930.36
2018-05-06T06:42:19.986Z,102920.67
2018-05-06T06:44:47.633Z,102916.32
2018-05-06T06:47:14.484Z,102909.53
2018-05-06T06:49:41.369Z,102913.99
2018-05-06T06:52:08.234Z,102917.29
2018-05-06T06:54:35.111Z,102933.23
2018-05-06T06:57:02.179Z,102934.05
2018-05-06T06:59:29.029Z,102925.03
2018-05-06T07:01:55.884Z,102917.02
2018-05-06T07:04:22.825Z,102920.73
2018-05-06T07:06:49.682Z,102919.78
2018-05-06T07:09:17.277Z,102926.99
2018-05-06T07:11:44.209Z,102928.57
2018-05-06T07:14:11.062Z,102930.63
2018-05-06T07:16:37.943Z,102926.27
2018-05-06T07:19:04.789Z,102929.45
2018-05-06T07:21:31.663Z,102925.02
2018-05-06T07:23:59.317Z,102930.03
2018-05-06T07:26:26.908Z,102933.40
2018-05-06T07:28:53.800Z,102924.72
2018-05-06T07:31:20.683Z,102924.16
2018-05-06T07:33:47.553Z,102914.40
2018-05-06T07:36:14.505Z,102910.73
2018-05-06T07:38:41.377Z,102908.97
2018-05-06T07:41:08.300Z,102902.55
2018-05-06T07:43:35.251Z,102914.34
2018-05-06T07:46:02.091Z,102900.15
2018-05-06T07:48:29.012Z,102901.55
2018-05-06T07:50:56.518Z,102890.96
2018-05-06T07:53:23.640Z,102890.55
2018-05-06T07:55:50.483Z,102884.80
2018-05-06T07:58:17.319Z,102885.92
2018-05-06T08:00:44.592Z,102887.15
2018-05-06T08:03:11.423Z,102893.73
2018-05-06T08:05:38.277Z,102898.16
2018-05-06T08:08:05.908Z,102891.54
2018-05-06T08:10:33.499Z,102905.22
2018-05-06T08:13:00.422Z,102900.27
2018-05-06T08:15:27.289Z,102910.84
2018-05-06T08:17:54.204Z,102915.14
2018-05-06T08:20:21.880Z,102919.36
2018-05-06T08:22:48.732Z,102911.73
2018-05-06T08:25:15.582Z,102906.30
2018-05-06T08:27:42.560Z,102898.72
2018-05-06T08:30:09.428Z,102901.71
2018-05-06T08:32:36.340Z,102903.69
2018-05-06T08:35:03.982Z,102900.51
2018-05-06T08:37:30.878Z,102894.68
2018-05-06T08:39:57.744Z,102896.34
2018-05-06T08:42:25.334Z,102890.64
2018-05-06T08:44:52.981Z,102886.51
2018-05-06T08:47:20.047Z,102882.94
2018-05-06T08:49:46.987Z,102890.69
2018-05-06T08:52:13.975Z,102887.02
2018-05-06T08:54:40.836Z,102887.63
2018-05-06T08:57:07.736Z,102888.94
2018-05-06T08:59:34.660Z,102890.92
2018-05-06T09:02:01.895Z,102873.27
2018-05-06T09:04:28.853Z,102876.78
2018-05-06T09:06:55.714Z,102879.89
2018-05-06T09:09:22.601Z,102877.95
2018-05-06T09:11:49.459Z,102873.02
2018-05-06T09:14:16.295Z,102874.29
2018-05-06T09:16:43.335Z,102867.58
2018-05-06T09:19:10.305Z,102861.34
2018-05-06T09:21:37.239Z,102857.73
2018-05-06T09:24:04.125Z,102854.33
2018-05-06T09:26:31.017Z,102852.41
2018-05-06T09:28:57.897Z,102856.08
2018-05-06T09:31:25.523Z,102853.15
2018-05-06T09:33:52.457Z,102853.64
2018-05-06T09:36:19.340Z,102859.02
2018-05-06T09:38:46.213Z,102861.02
2018-05-06T09:41:13.096Z,102855.55
2018-05-06T09:43:39.925Z,102862.28
2018-05-06T09:46:06.812Z,102855.37
2018-05-06T09:48:33.664Z,102866.74
2018-05-06T09:51:00.491Z,102863.09
2018-05-06T09:53:27.373Z,102854.75
2018-05-06T09:55:54.955Z,102868.62
2018-05-06T09:58:21.840Z,102861.12
2018-05-06T10:00:48.688Z,102850.88
2018-05-06T10:03:15.675Z,102847.98
2018-05-06T10:05:43.244Z,102850.33
2018-05-06T10:08:10.140Z,102849.08
2018-05-06T10:10:37.017Z,102844.66
2018-05-06T10:13:03.843Z,102839.61
2018-05-06T10:15:30.688Z,102852.52
2018-05-06T10:17:57.555Z,102852.66
2018-05-06T10:20:25.129Z,102844.14
2018-05-06T10:22:52.325Z,102848.46
2018-05-06T10:25:19.166Z,102836.84
2018-05-06T10:27:46.045Z,102840.53
2018-05-06T10:30:13.670Z,102837.63
2018-05-06T10:32:40.937Z,102825.50
2018-05-06T10:35:07.792Z,102822.56
2018-05-06T10:37:34.628Z,102827.96
2018-05-06T10:40:01.512Z,102822.32
2018-05-06T10:42:29.144Z,102824.55
2018-05-06T10:44:56.005Z,102822.73
2018-05-06T10:47:23.572Z,102822.99
2018-05-06T10:49:50.436Z,102821.23
2018-05-06T10:52:17.346Z,102803.20
2018-05-06T10:54:44.194Z,102805.59
2018-05-06T10:57:11.349Z,102797.57
2018-05-06T10:59:38.945Z,102796.91
2018-05-06T11:02:05.821Z,102796.58
2018-05-06T11:04:33.497Z,102801.14
2018-05-06T11:07:01.120Z,102789.75
2018-05-06T11:09:27.967Z,102794.48
2018-05-06T11:11:54.847Z,102796.78
2018-05-06T11:14:21.689Z,102791.79
2018-05-06T11:16:48.832Z,102794.08
2018-05-06T11:19:15.751Z,102789.30
2018-05-06T11:21:42.579Z,102782.94
2018-05-06T11:24:09.480Z,102785.13
2018-05-06T11:26:36.343Z,102775.27
2018-05-06T11:29:03.255Z,102776.08
2018-05-06T11:31:30.169Z,102771.31
2018-05-06T11:33:57.080Z,102779.67
2018-05-06T11:36:24.661Z,102771.83
2018-05-06T11:38:52.235Z,102767.36
2018-05-06T11:41:19.143Z,102765.94
2018-05-06T11:43:46.049Z,102758.78
2018-05-06T11:46:13.609Z,102745.80
2018-05-06T11:48:40.776Z,102743.67
2018-05-06T11:51:07.615Z,102752.25
2018-05-06T11:53:34.443Z,102743.88
2018-05-06T11:56:01.716Z,102745.67
2018-05-06T11:58:28.557Z,102742.67
2018-05-06T12:00:55.392Z,102739.52
2018-05-06T12:03:22.281Z,102739.48
2018-05-06T12:05:49.131Z,102733.31
2018-05-06T12:08:16.766Z,102723.37
2018-05-06T12:10:43.605Z,102729.31
2018-05-06T12:13:10.444Z,102720.34
2018-05-06T12:15:37.598Z,102715.94
2018-05-06T12:18:04.445Z,102714.70
2018-05-06T12:20:31.285Z,102710.61
2018-05-06T12:22:58.214Z,102701.11
2018-05-06T12:25:25.052Z,102708.75
2018-05-06T12:27:51.897Z,102708.16
2018-05-06T12:30:18.768Z,102695.75
2018-05-06T12:32:45.646Z,102698.71
2018-05-06T12:35:12.525Z,102709.14
2018-05-06T12:37:39.362Z,102699.56
2018-05-06T12:40:06.248Z,102695.55
2018-05-06T12:42:33.429Z,102690.90
2018-05-06T12:45:01.010Z,102688.58
2018-05-06T12:47:27.909Z,102686.73
2018-05-06T12:49:54.805Z,102690.19
2018-05-06T12:52:21.656Z,102680.47
2018-05-06T12:54:48.844Z,102680.31
2018-05-06T12:57:15.691Z,102678.20
2018-05-06T12:59:42.525Z,102676.84
2018-05-06T13:02:09.440Z,102679.25
2018-05-06T13:04:36.330Z,102666.59
2018-05-06T13:07:03.265Z,102661.16
2018-05-06T13:09:30.152Z,102664.11
2018-05-06T13:11:57.776Z,102664.49
2018-05-06T13:14:24.661Z,102656.89
2018-05-06T13:16:52.251Z,102658.94
2018-05-06T13:19:19.136Z,102653.65
2018-05-06T13:21:46.065Z,102656.63
2018-05-06T13:24:12.931Z,102644.28
2018-05-06T13:26:39.813Z,102652.36
2018-05-06T13:29:06.717Z,102643.23
2018-05-06T13:31:33.616Z,102644.30
2018-05-06T13:34:00.452Z,102635.54
2018-05-06T13:36:27.347Z,102630.00
2018-05-06T13:38:54.331Z,102630.45
2018-05-06T13:41:21.950Z,102625.17
2018-05-06T13:43:48.877Z,102627.56
2018-05-06T13:46:16.452Z,102614.97
2018-05-06T13:48:43.349Z,102620.98
2018-05-06T13:51:10.972Z,102616.25
2018-05-06T13:53:38.160Z,102613.84
2018-05-06T13:56:05.036Z,102608.93
2018-05-06T13:58:31.877Z,102607.42
2018-05-06T14:00:58.775Z,102610.39
2018-05-06T14:03:25.607Z,102602.69
2018-05-06T14:05:52.454Z,102599.52
2018-05-06T14:08:19.332Z,102599.20
2018-05-06T14:10:46.909Z,102596.20
2018-05-06T14:13:13.812Z,102584.62
2018-05-06T14:15:40.644Z,102595.60
2018-05-06T14:18:08.256Z,102593.42
2018-05-06T14:20:35.227Z,102588.66
2018-05-06T14:23:02.119Z,102589.56
2018-05-06T14:25:29.017Z,102587.66
2018-05-06T14:27:55.853Z,102579.91
2018-05-06T14:30:22.743Z,102587.27
2018-05-06T14:32:49.588Z,102581.55
2018-05-06T14:35:16.493Z,102581.98
2018-05-06T14:37:43.418Z,102567.87
2018-05-06T14:40:10.273Z,102572.80
2018-05-06T14:42:37.159Z,102562.25
2018-05-06T14:45:04.052Z,102561.36
2018-05-06T14:47:49.348Z,102565.53
2018-05-06T14:50:16.244Z,102562.69
2018-05-06T14:52:43.101Z,102558.69
2018-05-06T14:55:10.683Z,102561.47
2018-05-06T14:57:37.588Z,102560.88
2018-05-06T15:00:04.477Z,102552.04
2018-05-06T15:02:31.364Z,102549.47
2018-05-06T15:04:58.292Z,102553.32
2018-05-06T15:07:25.233Z,102544.52
2018-05-06T15:09:52.356Z,102547.52
2018-05-06T15:12:19.249Z,102545.80
2018-05-06T15:14:52.066Z,102551.06
2018-05-06T15:17:19.723Z,102541.28
2018-05-06T15:19:46.843Z,102538.02
2018-05-06T15:22:13.933Z,102541.48
2018-05-06T15:24:41.664Z,102531.16
2018-05-06T15:27:08.988Z,102538.41
2018-05-06T15:29:35.877Z,102535.34
2018-05-06T15:32:02.774Z,102538.48
2018-05-06T15:34:29.699Z,102531.97
2018-05-06T15:36:56.579Z,102530.52
2018-05-06T15:39:23.465Z,102531.21
2018-05-06T15:41:50.312Z,102529.75
2018-05-06T15:44:17.979Z,102527.21
2018-05-06T15:46:45.610Z,102523.31
2018-05-06T15:49:13.311Z,102518.52
2018-05-06T15:51:41.011Z,102519.77
2018-05-06T15:54:07.986Z,102516.48
2018-05-06T15:56:35.173Z,102516.95
2018-05-06T15:59:02.845Z,102510.98
2018-05-06T16:01:30.455Z,102516.89
2018-05-06T16:04:14.643Z,102514.13
2018-05-06T16:06:41.541Z,102515.38
2018-05-06T16:09:08.480Z,102514.84
2018-05-06T16:11:35.335Z,102510.97
2018-05-06T16:14:02.270Z,102507.93
2018-05-06T16:16:29.247Z,102504.41
2018-05-06T16:18:56.117Z,102495.66
2018-05-06T16:21:24.315Z,102503.88
2018-05-06T16:23:51.179Z,102495.19
2018-05-06T16:26:18.078Z,102495.63
2018-05-06T16:28:45.670Z,102483.67
2018-05-06T16:31:12.564Z,102493.27
2018-05-06T16:33:39.395Z,102484.00
2018-05-06T16:36:06.239Z,102487.73
2018-05-06T16:38:33.151Z,102486.10
2018-05-06T16:41:00.022Z,102491.62
2018-05-06T16:43:26.924Z,102483.17
2018-05-06T16:45:54.552Z,102484.22
2018-05-06T16:48:21.440Z,102485.58
2018-05-06T16:50:49.050Z,102486.43
2018-05-06T16:53:15.899Z,102488.48
2018-05-06T16:55:42.775Z,102487.59
2018-05-06T16:58:10.390Z,102486.95
2018-05-06T17:00:37.329Z,102487.78
2018-05-06T17:03:04.213Z,102486.25
2018-05-06T17:05:31.191Z,102483.95
2018-05-06T17:07:58.289Z,102481.63
2018-05-06T17:10:25.157Z,102484.93
2018-05-06T17:12:52.016Z,102479.67
2018-05-06T17:15:19.655Z,102481.56
2018-05-06T17:17:46.521Z,102482.39
2018-05-06T17:20:14.280Z,102481.22
2018-05-06T17:22:41.123Z,102480.38
2018-05-06T17:25:08.014Z,102478.96
2018-05-06T17:27:34.999Z,102480.06
2018-05-06T17:30:01.915Z,102484.08
2018-05-06T17:32:28.845Z,102480.59
2018-05-06T17:34:55.707Z,102479.79
2018-05-06T17:37:22.623Z,102484.64
2018-05-06T17:39:49.545Z,102480.67
2018-05-06T17:42:16.386Z,102487.88
2018-05-06T17:44:43.319Z,102482.48
2018-05-06T17:47:10.236Z,102480.31
2018-05-06T17:49:37.221Z,102484.30
2018-05-06T17:52:04.114Z,102483.39
2018-05-06T17:54:31.086Z,102484.20
2018-05-06T17:56:57.956Z,102480.83
2018-05-06T17:59:24.870Z,102487.17
2018-05-06T18:01:51.722Z,102483.65
2018-05-06T18:04:19.404Z,102483.26
2018-05-06T18:06:46.293Z,102481.28
2018-05-06T18:09:13.140Z,102483.67
2018-05-06T18:11:40.032Z,102485.09
2018-05-06T18:14:06.946Z,102490.26
2018-05-06T18:16:33.797Z,102490.84
2018-05-06T18:19:00.684Z,102483.68
2018-05-06T18:21:28.360Z,102488.63
2018-05-06T18:23:56.035Z,102482.88
2018-05-06T18:26:23.684Z,102483.66
2018-05-06T18:28:51.723Z,102482.26
2018-05-06T18:31:18.596Z,102480.69
2018-05-06T18:33:46.206Z,102478.25
2018-05-06T18:36:13.113Z,102479.62
2018-05-06T18:38:40.703Z,102480.73
2018-05-06T18:41:07.833Z,102478.34
2018-05-06T18:43:35.429Z,102478.77
2018-05-06T18:46:02.295Z,102477.36
2018-05-06T18:48:29.215Z,102480.49
2018-05-06T18:50:56.148Z,102482.45
2018-05-06T18:53:23.038Z,102478.97
2018-05-06T18:55:49.937Z,102472.58
2018-05-06T18:58:16.816Z,102483.89
2018-05-06T19:00:43.671Z,102487.81
2018-05-06T19:03:10.579Z,102481.81
2018-05-06T19:05:38.230Z,102487.05
2018-05-06T19:08:05.148Z,102484.83
2018-05-06T19:10:32.737Z,102487.73
2018-05-06T19:12:59.637Z,102489.19
2018-05-06T19:15:26.531Z,102495.06
2018-05-06T19:17:53.392Z,102489.42
2018-05-06T19:20:20.298Z,102493.95
2018-05-06T19:22:47.886Z,102490.83
2018-05-06T19:25:14.737Z,102492.52
2018-05-06T19:27:41.641Z,102501.34
2018-05-06T19:30:08.485Z,102503.59
2018-05-06T19:32:35.416Z,102502.70
2018-05-06T19:35:02.273Z,102499.66
2018-05-06T19:37:29.498Z,102502.81
2018-05-06T19:39:56.339Z,102501.25
2018-05-06T19:42:23.182Z,102498.04
2018-05-06T19:44:50.065Z,102501.44
2018-05-06T19:47:17.766Z,102504.48
2018-05-06T19:49:44.701Z,102506.77
2018-05-06T19:52:11.561Z,102507.55
2018-05-06T19:54:38.448Z,102507.22
2018-05-06T19:57:05.547Z,102502.89
2018-05-06T19:59:32.448Z,102504.15
2018-05-06T20:01:59.292Z,102509.28
2018-05-06T20:04:26.139Z,102507.01
2018-05-06T20:06:53.043Z,102507.39
2018-05-06T20:09:20.637Z,102508.73
2018-05-06T20:11:47.479Z,102510.75
2018-05-06T20:14:14.420Z,102509.95
2018-05-06T20:16:41.332Z,102505.53
2018-05-06T20:19:08.209Z,102509.82
2018-05-06T20:21:35.124Z,102511.91
2018-05-06T20:24:01.983Z,102510.48
2018-05-06T20:26:28.891Z,102506.01
2018-05-06T20:28:56.505Z,102510.89
2018-05-06T20:31:23.568Z,102511.94
2018-05-06T20:33:50.585Z,102513.28
2018-05-06T20:36:17.432Z,102507.78
2018-05-06T20:38:44.375Z,102514.64
2018-05-06T20:41:11.233Z,102508.15
2018-05-06T20:43:38.121Z,102516.49
2018-05-06T20:46:05.719Z,102510.14
2018-05-06T20:48:32.645Z,102516.14
2018-05-06T20:50:59.505Z,102511.34
2018-05-06T20:53:26.351Z,102510.94
2018-05-06T20:55:53.232Z,102511.80
2018-05-06T20:58:20.432Z,102516.84
2018-05-06T21:00:47.376Z,102507.25
2018-05-06T21:03:14.216Z,102504.66
2018-05-06T21:05:41.178Z,102508.89
2018-05-06T21:08:08.033Z,102504.02
2018-05-06T21:10:35.372Z,102496.86
2018-05-06T21:13:02.250Z,102502.30
2018-05-06T21:15:29.142Z,102508.58
2018-05-06T21:17:56.731Z,102504.61
2018-05-06T21:20:23.575Z,102501.78
2018-05-06T21:22:50.474Z,102506.73
2018-05-06T21:25:17.358Z,102508.27
2018-05-06T21:27:44.294Z,102503.16
2018-05-06T21:30:11.147Z,102504.02
2018-05-06T21:32:37.995Z,102503.61
2018-05-06T21:35:04.881Z,102497.53
2018-05-06T21:37:31.787Z,102505.20
2018-05-06T21:39:58.716Z,102499.56
2018-05-06T21:42:26.631Z,102499.47
2018-05-06T21:44:53.630Z,102496.51
2018-05-06T21:47:20.437Z,102490.59
2018-05-06T21:49:47.617Z,102492.66
2018-05-06T21:52:14.455Z,102487.30
2018-05-06T21:54:42.048Z,102492.89
2018-05-06T21:57:08.943Z,102490.25
2018-05-06T21:59:35.804Z,102492.03
2018-05-06T22:02:03.492Z,102489.00
2018-05-06T22:04:31.124Z,102484.82
2018-05-06T22:06:57.955Z,102484.41
2018-05-06T22:09:24.804Z,102490.81
2018-05-06T22:11:51.688Z,102492.73
2018-05-06T22:14:18.552Z,102492.52
2018-05-06T22:16:45.441Z,102492.33
2018-05-06T22:19:12.301Z,102495.92
2018-05-06T22:21:39.184Z,102495.42
2018-05-06T22:24:06.064Z,102503.20
2018-05-06T22:26:32.993Z,102505.71
2018-05-06T22:28:59.873Z,102503.77
2018-05-06T22:31:26.720Z,102509.58
2018-05-06T22:33:53.610Z,102510.58
2018-05-06T22:36:20.470Z,102503.64
2018-05-06T22:38:47.368Z,102511.64
2018-05-06T22:41:14.955Z,102504.25
2018-05-06T22:43:41.862Z,102504.75
2018-05-06T22:46:08.775Z,102504.02
2018-05-06T22:48:35.664Z,102495.19
2018-05-06T22:51:03.269Z,102509.31
2018-05-06T22:53:30.198Z,102501.28
2018-05-06T22:55:57.065Z,102500.67
2018-05-06T22:58:24.904Z,102497.41
2018-05-06T23:00:51.843Z,102498.98
2018-05-06T23:03:19.423Z,102493.25
2018-05-06T23:05:46.396Z,102499.31
2018-05-06T23:08:13.248Z,102504.52
2018-05-06T23:10:40.144Z,102501.47
2018-05-06T23:13:07.068Z,102500.55
2018-05-06T23:15:33.941Z,102502.75
2018-05-06T23:18:00.784Z,102498.61
2018-05-06T23:20:27.819Z,102496.64
2018-05-06T23:22:55.413Z,102503.81
2018-05-06T23:25:22.341Z,102505.03
2018-05-06T23:27:49.184Z,102501.44
2018-05-06T23:30:16.387Z,102502.36
2018-05-06T23:32:43.238Z,102493.87
2018-05-06T23:35:10.080Z,102496.27
2018-05-06T23:37:36.985Z,102497.83
2018-05-06T23:40:04.634Z,102502.00
2018-05-06T23:42:31.721Z,102504.70
2018-05-06T23:44:58.613Z,102504.89
2018-05-06T23:47:26.244Z,102502.19
2018-05-06T23:49:57.711Z,102504.48
2018-05-06T23:52:24.609Z,102502.25
2018-05-06T23:54:51.527Z,102504.22
2018-05-06T23:57:19.221Z,102498.02
2018-05-06T23:59:46.084Z,102498.70
